createdAt,value
2023-04-21T00:00:53.848Z,5.60
2023-04-21T00:01:55.712Z,5.90
2023-04-21T00:02:57.998Z,5.70
2023-04-21T00:04:00.506Z,6.10
2023-04-21T00:05:03.332Z,6.00
2023-04-21T00:06:06.804Z,6.00
2023-04-21T00:07:08.659Z,6.10
2023-04-21T00:08:10.496Z,5.90
2023-04-21T00:09:12.649Z,6.30
2023-04-21T00:10:14.673Z,6.30
2023-04-21T00:11:17.800Z,6.70
2023-04-21T00:12:19.946Z,7.10
2023-04-21T00:13:21.741Z,7.00
2023-04-21T00:14:23.573Z,7.20
2023-04-21T00:15:25.713Z,7.40
2023-04-21T00:16:41.923Z,7.50
2023-04-21T00:17:44.343Z,7.30
2023-04-21T00:18:47.201Z,7.20
2023-04-21T00:19:49.110Z,7.30
2023-04-21T00:20:51.851Z,7.30
2023-04-21T00:21:59.010Z,7.30
2023-04-21T00:23:01.154Z,7.10
2023-04-21T00:24:02.967Z,6.80
2023-04-21T00:25:05.434Z,6.80
2023-04-21T00:26:07.387Z,6.70
2023-04-21T00:27:09.213Z,6.30
2023-04-21T00:28:11.385Z,6.70
2023-04-21T00:29:13.280Z,6.70
2023-04-21T00:30:15.311Z,6.30
2023-04-21T00:31:17.148Z,6.20
2023-04-21T00:32:19.081Z,6.20
2023-04-21T00:33:21.111Z,6.20
2023-04-21T00:34:22.957Z,6.10
2023-04-21T00:35:24.838Z,6.00
2023-04-21T00:36:28.567Z,5.90
2023-04-21T00:37:31.148Z,5.90
2023-04-21T00:38:32.935Z,6.00
2023-04-21T00:39:35.221Z,5.70
2023-04-21T00:40:39.804Z,5.60
2023-04-21T00:41:42.618Z,5.50
2023-04-21T00:42:44.500Z,5.50
2023-04-21T00:44:10.265Z,5.50
2023-04-21T00:45:12.411Z,5.50
2023-04-21T00:46:14.507Z,6.20
2023-04-21T00:47:16.372Z,5.70
2023-04-21T00:48:20.382Z,5.60
2023-04-21T00:49:24.315Z,5.50
2023-04-21T00:50:27.158Z,5.50
2023-04-21T00:51:30.124Z,5.50
2023-04-21T00:52:32.227Z,5.50
2023-04-21T00:53:34.289Z,5.50
2023-04-21T00:54:37.011Z,5.50
2023-04-21T00:55:39.225Z,5.50
2023-04-21T00:56:41.223Z,6.00
2023-04-21T00:57:44.196Z,6.20
2023-04-21T00:58:46.250Z,6.20
2023-04-21T00:59:48.397Z,6.10
2023-04-21T01:00:50.398Z,6.00
2023-04-21T01:01:53.278Z,5.90
2023-04-21T01:02:56.307Z,5.90
2023-04-21T01:04:02.746Z,5.50
2023-04-21T01:05:09.364Z,5.50
2023-04-21T01:06:12.233Z,5.50
2023-04-21T01:07:14.397Z,5.60
2023-04-21T01:08:16.893Z,5.70
2023-04-21T01:09:19.078Z,5.80
2023-04-21T01:10:21.178Z,6.30
2023-04-21T01:11:22.953Z,6.30
2023-04-21T01:12:24.677Z,6.10
2023-04-21T01:13:26.387Z,6.20
2023-04-21T01:14:28.295Z,6.30
2023-04-21T01:15:31.691Z,6.40
2023-04-21T01:16:34.592Z,6.30
2023-04-21T01:17:38.922Z,6.10
2023-04-21T01:18:42.070Z,6.00
2023-04-21T01:19:44.809Z,6.00
2023-04-21T01:20:46.912Z,6.50
2023-04-21T01:21:49.424Z,6.80
2023-04-21T01:22:51.800Z,6.70
2023-04-21T01:23:53.780Z,6.30
2023-04-21T01:24:57.137Z,6.00
2023-04-21T01:25:59.180Z,5.80
2023-04-21T01:27:01.623Z,5.90
2023-04-21T01:28:04.100Z,6.30
2023-04-21T01:29:06.340Z,6.40
2023-04-21T01:30:10.142Z,6.30
2023-04-21T01:31:12.273Z,6.30
2023-04-21T01:32:19.866Z,6.50
2023-04-21T01:33:22.222Z,6.60
2023-04-21T01:34:24.045Z,6.90
2023-04-21T01:35:26.034Z,6.50
2023-04-21T01:36:28.438Z,6.20
2023-04-21T01:37:32.731Z,6.00
2023-04-21T01:38:34.595Z,5.90
2023-04-21T01:39:44.955Z,5.50
2023-04-21T01:40:49.892Z,5.40
2023-04-21T01:41:51.714Z,5.40
2023-04-21T01:42:53.571Z,5.40
2023-04-21T01:43:55.376Z,5.40
2023-04-21T01:44:57.636Z,5.50
2023-04-21T01:45:59.607Z,5.70
2023-04-21T01:47:01.606Z,5.60
2023-04-21T01:48:03.831Z,5.70
2023-04-21T01:49:06.994Z,5.90
2023-04-21T01:50:10.015Z,6.30
2023-04-21T01:51:11.746Z,6.30
2023-04-21T01:52:13.603Z,6.20
2023-04-21T01:53:15.467Z,6.20
2023-04-21T01:54:17.319Z,5.90
2023-04-21T01:55:19.229Z,5.30
2023-04-21T01:56:21.368Z,5.60
2023-04-21T01:57:23.228Z,5.50
2023-04-21T01:58:25.088Z,5.50
2023-04-21T01:59:26.943Z,5.90
2023-04-21T02:00:28.826Z,6.20
2023-04-21T02:01:30.795Z,6.10
2023-04-21T02:02:32.745Z,6.10
2023-04-21T02:03:34.871Z,5.90
2023-04-21T02:04:37.067Z,5.90
2023-04-21T02:05:38.977Z,5.70
2023-04-21T02:06:43.286Z,5.60
2023-04-21T02:07:45.609Z,5.40
2023-04-21T02:08:47.457Z,5.50
2023-04-21T02:09:49.296Z,5.60
2023-04-21T02:10:51.189Z,5.70
2023-04-21T02:11:53.080Z,5.60
2023-04-21T02:12:55.000Z,5.60
2023-04-21T02:13:57.008Z,5.20
2023-04-21T02:14:58.939Z,5.20
2023-04-21T02:16:12.561Z,5.20
2023-04-21T02:17:15.301Z,5.20
2023-04-21T02:18:17.216Z,5.20
2023-04-21T02:19:19.443Z,5.20
2023-04-21T02:20:21.353Z,4.90
2023-04-21T02:21:27.280Z,4.60
2023-04-21T02:22:29.438Z,4.50
2023-04-21T02:23:31.139Z,4.50
2023-04-21T02:24:32.888Z,5.20
2023-04-21T02:25:34.904Z,5.40
2023-04-21T02:26:36.847Z,5.40
2023-04-21T02:27:38.805Z,5.10
2023-04-21T02:28:40.982Z,5.10
2023-04-21T02:29:42.840Z,5.10
2023-04-21T02:30:44.744Z,5.10
2023-04-21T02:31:58.808Z,5.00
2023-04-21T02:33:05.048Z,5.00
2023-04-21T02:34:07.042Z,5.00
2023-04-21T02:35:09.581Z,5.00
2023-04-21T02:36:11.578Z,5.10
2023-04-21T02:37:13.493Z,5.00
2023-04-21T02:38:15.266Z,5.40
2023-04-21T02:39:17.618Z,5.70
2023-04-21T02:40:19.543Z,6.10
2023-04-21T02:41:21.408Z,6.40
2023-04-21T02:42:23.310Z,6.30
2023-04-21T02:43:25.266Z,6.30
2023-04-21T02:44:27.062Z,6.30
2023-04-21T02:45:28.976Z,6.20
2023-04-21T02:46:30.979Z,6.10
2023-04-21T02:47:33.139Z,5.90
2023-04-21T02:48:35.521Z,5.10
2023-04-21T02:49:42.107Z,5.00
2023-04-21T02:50:44.106Z,5.20
2023-04-21T02:51:45.934Z,5.70
2023-04-21T02:52:47.636Z,6.20
2023-04-21T02:53:49.569Z,6.40
2023-04-21T02:54:51.308Z,6.30
2023-04-21T02:55:53.542Z,6.40
2023-04-21T02:56:55.404Z,6.20
2023-04-21T02:57:57.243Z,6.00
2023-04-21T02:58:58.985Z,5.80
2023-04-21T03:00:00.845Z,6.00
2023-04-21T03:01:03.978Z,5.70
2023-04-21T03:02:06.136Z,5.60
2023-04-21T03:03:08.828Z,5.20
2023-04-21T03:04:10.764Z,5.20
2023-04-21T03:05:13.317Z,5.00
2023-04-21T03:06:15.213Z,5.00
2023-04-21T03:07:17.367Z,4.90
2023-04-21T03:08:19.074Z,5.20
2023-04-21T03:09:21.115Z,5.30
2023-04-21T03:10:23.218Z,5.30
2023-04-21T03:11:25.274Z,5.00
2023-04-21T03:12:27.134Z,4.90
2023-04-21T03:13:29.030Z,4.40
2023-04-21T03:14:30.863Z,4.60
2023-04-21T03:15:32.872Z,4.90
2023-04-21T03:16:34.822Z,4.90
2023-04-21T03:17:38.019Z,4.90
2023-04-21T03:18:39.949Z,5.00
2023-04-21T03:19:42.002Z,4.90
2023-04-21T03:20:44.413Z,4.40
2023-04-21T03:21:46.531Z,4.20
2023-04-21T03:22:48.438Z,4.60
2023-04-21T03:23:50.566Z,4.90
2023-04-21T03:24:52.286Z,4.90
2023-04-21T03:25:54.636Z,4.90
2023-04-21T03:26:57.317Z,4.90
2023-04-21T03:27:59.178Z,4.90
2023-04-21T03:29:00.973Z,4.90
2023-04-21T03:30:04.168Z,3.80
2023-04-21T03:31:06.071Z,3.90
2023-04-21T03:32:07.890Z,4.60
2023-04-21T03:33:11.872Z,4.70
2023-04-21T03:34:13.620Z,3.90
2023-04-21T03:35:15.462Z,4.10
2023-04-21T03:36:17.234Z,4.40
2023-04-21T03:37:18.966Z,4.50
2023-04-21T03:38:20.829Z,4.70
2023-04-21T03:39:23.434Z,4.70
2023-04-21T03:40:25.844Z,4.40
2023-04-21T03:41:27.631Z,4.00
2023-04-21T03:42:30.207Z,4.40
2023-04-21T03:43:31.924Z,4.70
2023-04-21T03:44:34.919Z,4.70
2023-04-21T03:45:36.701Z,4.70
2023-04-21T03:46:38.600Z,4.70
2023-04-21T03:47:40.338Z,4.70
2023-04-21T03:48:42.013Z,4.70
2023-04-21T03:49:43.820Z,4.40
2023-04-21T03:50:45.906Z,4.10
2023-04-21T03:51:47.562Z,4.10
2023-04-21T03:52:49.332Z,3.70
2023-04-21T03:53:51.037Z,3.90
2023-04-21T03:54:52.896Z,4.60
2023-04-21T03:55:54.528Z,4.70
2023-04-21T03:56:56.278Z,4.60
2023-04-21T03:57:57.958Z,4.10
2023-04-21T03:58:59.684Z,4.60
2023-04-21T04:00:01.765Z,4.60
2023-04-21T04:01:06.664Z,4.50
2023-04-21T04:02:08.726Z,4.70
2023-04-21T04:03:14.602Z,4.90
2023-04-21T04:04:16.610Z,5.50
2023-04-21T04:05:18.510Z,4.70
2023-04-21T04:06:20.239Z,4.70
2023-04-21T04:07:21.938Z,4.70
2023-04-21T04:08:23.626Z,4.70
2023-04-21T04:09:25.318Z,4.40
2023-04-21T04:10:27.357Z,4.60
2023-04-21T04:11:29.006Z,4.50
2023-04-21T04:12:31.139Z,4.40
2023-04-21T04:13:32.815Z,4.20
2023-04-21T04:14:34.489Z,4.00
2023-04-21T04:15:36.619Z,4.00
2023-04-21T04:16:38.756Z,3.80
2023-04-21T04:17:40.769Z,4.60
2023-04-21T04:18:45.960Z,3.80
2023-04-21T04:19:48.079Z,3.90
2023-04-21T04:20:49.931Z,3.90
2023-04-21T04:21:51.564Z,4.00
2023-04-21T04:22:53.224Z,4.00
2023-04-21T04:23:55.164Z,4.00
2023-04-21T04:24:57.518Z,4.10
2023-04-21T04:25:59.649Z,4.10
2023-04-21T04:27:02.946Z,3.90
2023-04-21T04:28:05.418Z,3.90
2023-04-21T04:29:10.842Z,3.50
2023-04-21T04:30:15.758Z,3.60
2023-04-21T04:31:17.863Z,3.60
2023-04-21T04:32:19.601Z,4.00
2023-04-21T04:33:21.697Z,4.10
2023-04-21T04:34:23.562Z,4.20
2023-04-21T04:35:25.468Z,4.50
2023-04-21T04:36:28.782Z,4.40
2023-04-21T04:37:31.801Z,4.60
2023-04-21T04:38:35.071Z,4.70
2023-04-21T04:39:37.370Z,4.70
2023-04-21T04:40:39.059Z,4.70
2023-04-21T04:41:41.458Z,4.70
2023-04-21T04:42:45.508Z,4.70
2023-04-21T04:43:47.540Z,4.60
2023-04-21T04:44:49.276Z,4.70
2023-04-21T04:45:51.858Z,4.70
2023-04-21T04:46:54.258Z,4.70
2023-04-21T04:47:57.612Z,4.70
2023-04-21T04:49:00.631Z,4.20
2023-04-21T04:50:02.598Z,4.10
2023-04-21T04:51:04.611Z,4.60
2023-04-21T04:52:07.055Z,4.60
2023-04-21T04:53:08.922Z,5.10
2023-04-21T04:54:10.962Z,5.60
2023-04-21T04:55:14.102Z,5.90
2023-04-21T04:56:16.206Z,6.20
2023-04-21T04:57:18.233Z,6.30
2023-04-21T04:58:20.595Z,6.10
2023-04-21T04:59:22.566Z,6.30
2023-04-21T05:00:24.462Z,6.10
2023-04-21T05:01:30.447Z,5.60
2023-04-21T05:02:33.100Z,5.10
2023-04-21T05:03:35.304Z,5.20
2023-04-21T05:04:37.744Z,5.60
2023-04-21T05:05:40.027Z,5.50
2023-04-21T05:06:42.179Z,5.60
2023-04-21T05:07:44.116Z,5.60
2023-04-21T05:08:46.195Z,5.40
2023-04-21T05:09:48.239Z,5.50
2023-04-21T05:10:50.052Z,5.40
2023-04-21T05:11:53.034Z,5.40
2023-04-21T05:12:54.788Z,5.60
2023-04-21T05:13:56.673Z,5.60
2023-04-21T05:14:58.540Z,5.60
2023-04-21T05:16:04.385Z,5.50
2023-04-21T05:17:07.976Z,5.20
2023-04-21T05:18:10.477Z,5.10
2023-04-21T05:19:12.165Z,5.50
2023-04-21T05:20:14.117Z,5.90
2023-04-21T05:21:27.691Z,5.80
2023-04-21T05:22:29.583Z,6.80
2023-04-21T05:23:31.444Z,7.00
2023-04-21T05:24:34.364Z,7.00
2023-04-21T05:25:38.605Z,7.10
2023-04-21T05:26:40.316Z,7.10
2023-04-21T05:27:43.103Z,7.20
2023-04-21T05:28:44.979Z,7.20
2023-04-21T05:29:46.765Z,7.00
2023-04-21T05:30:48.578Z,6.90
2023-04-21T05:31:50.271Z,6.80
2023-04-21T05:32:52.098Z,6.90
2023-04-21T05:33:53.954Z,6.70
2023-04-21T05:34:55.648Z,6.70
2023-04-21T05:35:57.354Z,7.00
2023-04-21T05:36:59.171Z,7.00
2023-04-21T05:38:01.181Z,6.90
2023-04-21T05:39:03.299Z,6.70
2023-04-21T05:40:05.579Z,6.40
2023-04-21T05:41:08.204Z,6.70
2023-04-21T05:42:11.531Z,6.20
2023-04-21T05:43:13.252Z,6.80
2023-04-21T05:44:18.373Z,6.10
2023-04-21T05:45:22.162Z,5.70
2023-04-21T05:46:24.044Z,5.50
2023-04-21T05:47:25.894Z,5.90
2023-04-21T05:48:28.791Z,6.10
2023-04-21T05:49:30.596Z,6.20
2023-04-21T05:50:35.579Z,6.20
2023-04-21T05:51:37.277Z,6.20
2023-04-21T05:52:39.429Z,6.20
2023-04-21T05:53:42.933Z,6.20
2023-04-21T05:54:44.819Z,6.80
2023-04-21T05:55:46.598Z,7.00
2023-04-21T05:56:48.517Z,7.00
2023-04-21T05:57:50.361Z,7.30
2023-04-21T05:58:52.118Z,7.20
2023-04-21T05:59:53.784Z,7.00
2023-04-21T06:00:55.715Z,6.60
2023-04-21T06:01:58.493Z,6.60
2023-04-21T06:03:00.434Z,6.50
2023-04-21T06:04:02.544Z,6.30
2023-04-21T06:05:04.747Z,6.30
2023-04-21T06:06:08.072Z,6.10
2023-04-21T06:07:15.963Z,6.10
2023-04-21T06:08:19.272Z,6.00
2023-04-21T06:09:21.230Z,6.40
2023-04-21T06:10:23.084Z,6.10
2023-04-21T06:11:24.974Z,6.00
2023-04-21T06:12:26.696Z,5.40
2023-04-21T06:13:28.848Z,5.30
2023-04-21T06:14:30.775Z,5.30
2023-04-21T06:15:33.819Z,5.30
2023-04-21T06:16:47.643Z,6.00
2023-04-21T06:17:55.287Z,6.00
2023-04-21T06:18:58.935Z,5.90
2023-04-21T06:20:01.737Z,5.60
2023-04-21T06:21:03.598Z,5.40
2023-04-21T06:22:05.755Z,5.40
2023-04-21T06:23:07.647Z,5.50
2023-04-21T06:24:09.615Z,5.10
2023-04-21T06:25:11.293Z,4.90
2023-04-21T06:26:14.135Z,4.50
2023-04-21T06:27:16.095Z,4.90
2023-04-21T06:28:17.743Z,5.20
2023-04-21T06:29:20.060Z,5.40
2023-04-21T06:30:21.949Z,5.40
2023-04-21T06:31:23.700Z,5.40
2023-04-21T06:32:25.612Z,5.30
2023-04-21T06:33:29.951Z,5.60
2023-04-21T06:34:31.717Z,6.00
2023-04-21T06:35:33.642Z,6.40
2023-04-21T06:36:35.558Z,6.60
2023-04-21T06:37:37.733Z,6.30
2023-04-21T06:38:43.392Z,6.50
2023-04-21T06:39:45.561Z,6.40
2023-04-21T06:40:47.538Z,6.10
2023-04-21T06:41:49.447Z,6.20
2023-04-21T06:42:51.284Z,6.00
2023-04-21T06:43:52.999Z,5.60
2023-04-21T06:44:56.225Z,6.00
2023-04-21T06:45:57.919Z,5.60
2023-04-21T06:46:59.792Z,4.00
2023-04-21T06:48:01.623Z,3.90
2023-04-21T06:49:03.468Z,4.00
2023-04-21T06:50:06.372Z,4.00
2023-04-21T06:51:08.423Z,4.00
2023-04-21T06:52:10.335Z,3.90
2023-04-21T06:53:12.733Z,3.40
2023-04-21T06:54:14.623Z,3.00
2023-04-21T06:55:16.334Z,3.10
2023-04-21T06:56:18.070Z,3.10
2023-04-21T06:57:19.952Z,3.40
2023-04-21T06:58:21.997Z,3.10
2023-04-21T06:59:24.043Z,3.10
2023-04-21T07:00:25.855Z,2.70
2023-04-21T07:01:27.664Z,2.60
2023-04-21T07:02:29.520Z,2.10
2023-04-21T07:03:31.460Z,1.90
2023-04-21T07:04:33.405Z,2.60
2023-04-21T07:05:35.500Z,2.00
2023-04-21T07:06:37.181Z,1.70
2023-04-21T07:07:39.053Z,1.40
2023-04-21T07:08:41.623Z,2.30
2023-04-21T07:09:47.608Z,2.30
2023-04-21T07:10:49.432Z,2.50
2023-04-21T07:11:51.497Z,2.80
2023-04-21T07:12:53.661Z,2.60
2023-04-21T07:13:55.806Z,2.80
2023-04-21T07:14:57.572Z,3.20
2023-04-21T07:15:59.371Z,3.30
2023-04-21T07:17:01.538Z,3.20
2023-04-21T07:18:05.795Z,2.80
2023-04-21T07:19:08.319Z,2.80
2023-04-21T07:20:10.277Z,2.60
2023-04-21T07:21:12.074Z,2.50
2023-04-21T07:22:13.814Z,2.80
2023-04-21T07:23:15.455Z,2.60
2023-04-21T07:24:17.144Z,2.70
2023-04-21T07:25:19.108Z,2.70
2023-04-21T07:26:20.819Z,2.70
2023-04-21T07:27:22.992Z,2.70
2023-04-21T07:28:24.807Z,2.40
2023-04-21T07:29:26.902Z,2.40
2023-04-21T07:30:29.467Z,2.50
2023-04-21T07:31:31.291Z,2.40
2023-04-21T07:32:34.052Z,2.30
2023-04-21T07:33:35.901Z,2.40
2023-04-21T07:34:37.716Z,1.80
2023-04-21T07:35:39.637Z,2.00
2023-04-21T07:36:41.519Z,1.40
2023-04-21T07:37:43.252Z,1.40
2023-04-21T07:38:45.285Z,1.40
2023-04-21T07:39:47.091Z,1.40
2023-04-21T07:40:48.777Z,1.70
2023-04-21T07:41:50.704Z,1.90
2023-04-21T07:42:52.610Z,2.10
2023-04-21T07:43:54.906Z,1.90
2023-04-21T07:44:57.625Z,1.50
2023-04-21T07:45:59.454Z,1.60
2023-04-21T07:47:01.438Z,1.60
2023-04-21T07:48:03.429Z,1.70
2023-04-21T07:49:05.262Z,1.70
2023-04-21T07:50:07.881Z,1.80
2023-04-21T07:51:09.714Z,1.00
2023-04-21T07:52:11.892Z,1.00
2023-04-21T07:53:13.739Z,1.00
2023-04-21T07:54:15.562Z,1.10
2023-04-21T07:55:17.527Z,1.00
2023-04-21T07:56:19.641Z,1.00
2023-04-21T07:57:21.512Z,1.00
2023-04-21T07:58:23.387Z,1.00
2023-04-21T07:59:25.437Z,1.40
2023-04-21T08:00:27.420Z,1.00
2023-04-21T08:01:30.548Z,1.00
2023-04-21T08:02:32.730Z,1.00
2023-04-21T08:03:34.749Z,1.00
2023-04-21T08:04:37.111Z,1.00
2023-04-21T08:05:41.196Z,1.00
2023-04-21T08:06:43.831Z,1.00
2023-04-21T08:07:45.815Z,1.00
2023-04-21T08:08:48.060Z,1.00
2023-04-21T08:09:49.853Z,1.00
2023-04-21T08:10:51.596Z,1.00
2023-04-21T08:11:54.067Z,1.00
2023-04-21T08:12:56.089Z,1.00
2023-04-21T08:13:58.308Z,1.00
2023-04-21T08:15:00.141Z,1.00
2023-04-21T08:16:02.016Z,1.00
2023-04-21T08:17:09.558Z,1.00
2023-04-21T08:18:11.610Z,1.00
2023-04-21T08:19:13.471Z,1.00
2023-04-21T08:20:15.461Z,1.00
2023-04-21T08:21:17.117Z,1.00
2023-04-21T08:22:18.851Z,1.00
2023-04-21T08:23:20.815Z,1.00
2023-04-21T08:24:22.924Z,1.00
2023-04-21T08:25:25.225Z,1.00
2023-04-21T08:26:27.494Z,1.00
2023-04-21T08:27:29.279Z,1.00
2023-04-21T08:28:31.015Z,1.00
2023-04-21T08:29:32.823Z,1.00
2023-04-21T08:30:34.772Z,1.00
2023-04-21T08:31:37.153Z,1.00
2023-04-21T08:32:38.989Z,1.00
2023-04-21T08:33:49.862Z,1.00
2023-04-21T08:34:56.167Z,1.00
2023-04-21T08:36:04.223Z,1.00
2023-04-21T08:37:09.861Z,1.00
2023-04-21T08:38:11.578Z,1.00
2023-04-21T08:39:14.791Z,1.00
2023-04-21T08:40:17.004Z,1.00
2023-04-21T08:41:19.733Z,1.00
2023-04-21T08:42:21.778Z,1.00
2023-04-21T08:43:23.523Z,1.00
2023-04-21T08:44:25.694Z,1.00
2023-04-21T08:45:28.690Z,1.00
2023-04-21T08:46:31.875Z,1.00
2023-04-21T08:47:36.780Z,1.00
2023-04-21T08:48:39.172Z,1.00
2023-04-21T08:49:45.487Z,1.00
2023-04-21T08:50:49.219Z,1.00
2023-04-21T08:51:51.736Z,1.00
2023-04-21T08:52:54.738Z,1.00
2023-04-21T08:53:56.844Z,1.00
2023-04-21T08:54:59.177Z,1.00
2023-04-21T08:56:10.665Z,1.00
2023-04-21T08:57:15.661Z,1.00
2023-04-21T08:58:17.913Z,1.00
2023-04-21T08:59:19.928Z,1.00
2023-04-21T09:00:23.544Z,1.00
2023-04-21T09:01:25.405Z,1.00
2023-04-21T09:02:27.634Z,1.00
2023-04-21T09:03:34.340Z,1.00
2023-04-21T09:04:40.980Z,1.00
2023-04-21T09:05:43.428Z,1.00
2023-04-21T09:06:46.672Z,1.00
2023-04-21T09:07:48.693Z,1.00
2023-04-21T09:08:58.035Z,1.00
2023-04-21T09:10:00.932Z,1.00
2023-04-21T09:11:02.769Z,1.00
2023-04-21T09:12:04.679Z,1.00
2023-04-21T09:13:10.576Z,1.00
2023-04-21T09:14:13.746Z,1.00
2023-04-21T09:15:17.379Z,1.00
2023-04-21T09:16:21.405Z,1.00
2023-04-21T09:17:32.443Z,1.00
2023-04-21T09:18:36.900Z,1.00
2023-04-21T09:19:38.659Z,1.00
2023-04-21T09:20:41.185Z,1.00
2023-04-21T09:21:44.441Z,1.00
2023-04-21T09:22:48.030Z,1.00
2023-04-21T09:23:52.026Z,1.00
2023-04-21T09:25:00.101Z,1.00
2023-04-21T09:26:03.484Z,1.00
2023-04-21T09:27:05.161Z,1.00
2023-04-21T09:28:12.289Z,1.00
2023-04-21T09:29:14.859Z,1.00
2023-04-21T09:30:20.253Z,1.00
2023-04-21T09:31:29.327Z,1.00
2023-04-21T09:32:37.812Z,1.00
2023-04-21T09:33:49.760Z,1.00
2023-04-21T09:35:01.955Z,1.00
2023-04-21T09:36:05.704Z,1.00
2023-04-21T09:37:07.380Z,1.00
2023-04-21T09:38:13.038Z,1.00
2023-04-21T09:39:34.303Z,1.00
2023-04-21T09:40:36.979Z,1.00
2023-04-21T09:41:38.920Z,1.00
2023-04-21T09:42:43.074Z,1.00
2023-04-21T09:43:46.395Z,1.00
2023-04-21T09:44:55.360Z,1.00
2023-04-21T09:46:03.058Z,1.00
2023-04-21T09:47:06.118Z,1.00
2023-04-21T09:48:10.031Z,1.00
2023-04-21T09:49:13.747Z,1.00
2023-04-21T09:50:20.612Z,1.00
2023-04-21T09:52:02.109Z,1.00
2023-04-21T09:52:55.876Z,1.00
2023-04-21T09:54:30.023Z,1.00
2023-04-21T09:55:33.487Z,1.00
2023-04-21T09:56:40.682Z,1.00
2023-04-21T09:57:43.946Z,1.00
2023-04-21T09:58:57.738Z,1.00
2023-04-21T10:00:06.149Z,1.00
2023-04-21T10:01:09.339Z,1.00
2023-04-21T10:02:13.137Z,1.00
2023-04-21T10:03:18.194Z,1.00
2023-04-21T10:04:20.582Z,1.00
2023-04-21T10:05:24.168Z,1.00
2023-04-21T10:06:26.548Z,1.00
2023-04-21T10:07:28.368Z,1.00
2023-04-21T10:08:30.637Z,1.00
2023-04-21T10:09:55.225Z,1.00
2023-04-21T10:10:57.397Z,1.00
2023-04-21T10:12:02.753Z,1.00
2023-04-21T10:13:04.995Z,1.00
2023-04-21T10:14:08.612Z,1.00
2023-04-21T10:15:31.591Z,1.00
2023-04-21T10:16:37.874Z,1.00
2023-04-21T10:17:40.114Z,1.00
2023-04-21T10:18:46.414Z,1.00
2023-04-21T10:19:51.285Z,1.00
2023-04-21T10:20:58.614Z,1.00
2023-04-21T10:22:00.309Z,1.00
2023-04-21T10:23:01.946Z,1.00
2023-04-21T10:24:07.071Z,1.00
2023-04-21T10:25:10.199Z,1.00
2023-04-21T10:26:22.847Z,1.00
2023-04-21T10:27:40.756Z,1.00
2023-04-21T10:28:59.664Z,1.00
2023-04-21T10:30:01.995Z,1.00
2023-04-21T10:31:23.149Z,1.00
2023-04-21T10:32:41.591Z,1.00
2023-04-21T10:33:43.481Z,1.00
2023-04-21T10:34:45.718Z,1.00
2023-04-21T10:36:02.124Z,1.00
2023-04-21T10:37:03.792Z,1.00
2023-04-21T10:38:08.208Z,1.00
2023-04-21T10:39:13.151Z,1.00
2023-04-21T10:40:43.169Z,1.00
2023-04-21T10:41:46.510Z,1.00
2023-04-21T10:42:49.638Z,1.00
2023-04-21T10:43:51.833Z,1.00
2023-04-21T10:44:56.806Z,1.00
2023-04-21T10:45:58.777Z,1.00
2023-04-21T10:47:00.884Z,1.00
2023-04-21T10:48:04.172Z,1.00
2023-04-21T10:49:09.503Z,1.00
2023-04-21T10:50:26.218Z,1.00
2023-04-21T10:51:32.889Z,1.00
2023-04-21T10:52:34.605Z,1.00
2023-04-21T10:53:43.798Z,1.00
2023-04-21T10:54:48.366Z,1.00
2023-04-21T10:55:50.765Z,1.00
2023-04-21T10:56:59.203Z,1.00
2023-04-21T10:58:11.633Z,1.00
2023-04-21T10:59:15.162Z,1.00
2023-04-21T11:00:23.027Z,1.00
2023-04-21T11:01:25.181Z,1.00
2023-04-21T11:02:27.590Z,1.00
2023-04-21T11:03:36.803Z,1.00
2023-04-21T11:04:45.971Z,1.00
2023-04-21T11:05:47.901Z,1.00
2023-04-21T11:07:08.575Z,1.00
2023-04-21T11:08:16.583Z,1.00
2023-04-21T11:09:18.709Z,1.00
2023-04-21T11:10:20.583Z,1.00
2023-04-21T11:11:27.090Z,1.00
2023-04-21T11:12:31.259Z,1.00
2023-04-21T11:13:33.748Z,1.00
2023-04-21T11:14:37.118Z,1.00
2023-04-21T11:15:38.855Z,1.00
2023-04-21T11:16:42.945Z,1.00
2023-04-21T11:17:47.207Z,1.00
2023-04-21T11:18:49.134Z,1.00
2023-04-21T11:19:56.108Z,1.00
2023-04-21T11:21:10.977Z,1.00
2023-04-21T11:22:12.874Z,1.00
2023-04-21T11:23:18.871Z,1.00
2023-04-21T11:24:22.113Z,1.00
2023-04-21T11:25:24.283Z,1.00
2023-04-21T11:26:34.542Z,1.00
2023-04-21T11:27:36.682Z,1.00
2023-04-21T11:28:40.905Z,1.00
2023-04-21T11:29:44.528Z,1.00
2023-04-21T11:30:46.828Z,1.00
2023-04-21T11:31:50.222Z,1.00
2023-04-21T11:32:56.369Z,1.00
2023-04-21T11:33:59.721Z,1.00
2023-04-21T11:35:01.649Z,1.00
2023-04-21T11:36:09.308Z,1.00
2023-04-21T11:37:16.484Z,1.00
2023-04-21T11:38:21.344Z,1.00
2023-04-21T11:39:23.366Z,1.00
2023-04-21T11:40:25.395Z,1.00
2023-04-21T11:41:27.226Z,1.00
2023-04-21T11:42:29.375Z,1.00
2023-04-21T11:43:31.668Z,1.00
2023-04-21T11:44:41.908Z,1.00
2023-04-21T11:45:43.619Z,1.00
2023-04-21T11:46:49.532Z,1.00
2023-04-21T11:47:51.419Z,1.00
2023-04-21T11:49:06.962Z,1.00
2023-04-21T11:50:09.852Z,1.00
2023-04-21T11:51:20.721Z,1.00
2023-04-21T11:52:29.303Z,1.00
2023-04-21T11:53:31.185Z,1.00
2023-04-21T11:54:32.910Z,1.00
2023-04-21T11:55:37.261Z,1.00
2023-04-21T11:56:43.804Z,1.00
2023-04-21T11:57:45.894Z,1.00
2023-04-21T11:58:52.730Z,1.00
2023-04-21T11:59:57.228Z,1.00
2023-04-21T12:00:59.009Z,1.00
2023-04-21T12:02:04.433Z,1.00
2023-04-21T12:03:10.429Z,1.00
2023-04-21T12:04:17.334Z,1.00
2023-04-21T12:05:19.186Z,1.00
2023-04-21T12:06:22.541Z,1.00
2023-04-21T12:07:29.270Z,1.00
2023-04-21T12:08:34.462Z,1.00
2023-04-21T12:09:36.692Z,1.00
2023-04-21T12:10:38.616Z,1.00
2023-04-21T12:11:40.714Z,1.00
2023-04-21T12:12:43.556Z,1.00
2023-04-21T12:13:45.787Z,1.00
2023-04-21T12:14:49.551Z,1.00
2023-04-21T12:15:51.664Z,1.00
2023-04-21T12:16:58.208Z,1.00
2023-04-21T12:18:00.326Z,1.00
2023-04-21T12:19:02.849Z,1.00
2023-04-21T12:20:08.586Z,1.00
2023-04-21T12:21:15.618Z,1.00
2023-04-21T12:22:18.779Z,1.00
2023-04-21T12:23:20.477Z,1.00
2023-04-21T12:24:22.562Z,1.00
2023-04-21T12:25:25.155Z,1.00
2023-04-21T12:26:27.103Z,1.00
2023-04-21T12:27:29.029Z,1.00
2023-04-21T12:28:31.219Z,1.00
2023-04-21T12:29:35.720Z,1.00
2023-04-21T12:30:40.083Z,1.00
2023-04-21T12:31:44.059Z,1.00
2023-04-21T12:32:47.912Z,1.00
2023-04-21T12:33:49.702Z,1.00
2023-04-21T12:34:51.591Z,1.00
2023-04-21T12:35:53.358Z,1.00
2023-04-21T12:36:55.585Z,1.00
2023-04-21T12:37:57.403Z,1.00
2023-04-21T12:38:59.107Z,1.00
2023-04-21T12:40:00.943Z,1.00
2023-04-21T12:41:02.774Z,1.00
2023-04-21T12:42:04.705Z,1.00
2023-04-21T12:43:09.037Z,1.00
2023-04-21T12:44:12.722Z,1.00
2023-04-21T12:45:14.467Z,1.00
2023-04-21T12:46:16.831Z,1.00
2023-04-21T12:47:21.685Z,1.00
2023-04-21T12:48:24.555Z,1.00
2023-04-21T12:49:26.474Z,1.00
2023-04-21T12:50:28.352Z,1.00
2023-04-21T12:51:31.642Z,1.00
2023-04-21T12:52:33.391Z,1.00
2023-04-21T12:53:37.842Z,1.00
2023-04-21T12:54:39.471Z,1.00
2023-04-21T12:55:47.047Z,1.00
2023-04-21T12:56:58.887Z,1.00
2023-04-21T12:58:00.707Z,1.00
2023-04-21T12:59:02.659Z,1.00
2023-04-21T13:00:05.996Z,1.00
2023-04-21T13:01:07.951Z,1.00
2023-04-21T13:02:10.112Z,1.00
2023-04-21T13:03:12.126Z,1.00
2023-04-21T13:04:14.033Z,1.00
2023-04-21T13:05:15.998Z,1.00
2023-04-21T13:06:17.951Z,1.00
2023-04-21T13:07:22.125Z,1.00
2023-04-21T13:08:23.782Z,1.00
2023-04-21T13:09:25.619Z,1.00
2023-04-21T13:10:27.311Z,1.00
2023-04-21T13:11:29.352Z,1.00
2023-04-21T13:12:31.084Z,1.00
2023-04-21T13:13:32.713Z,1.00
2023-04-21T13:14:34.405Z,1.00
2023-04-21T13:15:36.113Z,1.00
2023-04-21T13:16:37.967Z,1.00
2023-04-21T13:17:40.610Z,1.00
2023-04-21T13:18:42.363Z,1.00
2023-04-21T13:19:44.046Z,1.00
2023-04-21T13:20:45.996Z,1.00
2023-04-21T13:21:48.238Z,1.00
2023-04-21T13:22:49.996Z,1.00
2023-04-21T13:23:53.403Z,1.00
2023-04-21T13:24:55.043Z,1.00
2023-04-21T13:25:56.862Z,1.00
2023-04-21T13:27:01.996Z,1.00
2023-04-21T13:28:03.947Z,1.00
2023-04-21T13:29:05.767Z,1.00
2023-04-21T13:30:09.642Z,1.00
2023-04-21T13:31:12.038Z,1.00
2023-04-21T13:32:13.909Z,1.00
2023-04-21T13:33:16.652Z,1.00
2023-04-21T13:34:18.482Z,1.00
2023-04-21T13:35:20.333Z,1.00
2023-04-21T13:36:22.219Z,1.00
2023-04-21T13:37:23.904Z,1.00
2023-04-21T13:38:25.615Z,1.00
2023-04-21T13:39:27.644Z,1.00
2023-04-21T13:40:29.421Z,1.00
2023-04-21T13:41:31.435Z,1.00
2023-04-21T13:42:33.791Z,1.00
2023-04-21T13:43:36.149Z,1.00
2023-04-21T13:44:37.928Z,1.00
2023-04-21T13:45:40.053Z,1.00
2023-04-21T13:46:42.648Z,1.00
2023-04-21T13:47:45.025Z,1.00
2023-04-21T13:48:47.612Z,1.00
2023-04-21T13:49:56.723Z,1.00
2023-04-21T13:50:59.176Z,1.00
2023-04-21T13:52:01.037Z,1.00
2023-04-21T13:53:02.675Z,1.00
2023-04-21T13:54:05.118Z,1.00
2023-04-21T13:55:07.237Z,1.00
2023-04-21T13:56:10.175Z,1.00
2023-04-21T13:57:11.978Z,1.00
2023-04-21T13:58:15.842Z,1.00
2023-04-21T13:59:17.654Z,1.00
2023-04-21T14:00:19.584Z,1.00
2023-04-21T14:01:21.899Z,1.00
2023-04-21T14:02:25.696Z,1.00
2023-04-21T14:03:27.872Z,1.00